sensor_id;sensor_type;location;lat;lon;timestamp;P1;durP1;ratioP1;P2;durP2;ratioP2
74158;SDS011;62511;47.970;11.774;2023-07-31T00:00:55;2.30;;;1.17;;
74158;SDS011;62511;47.970;11.774;2023-07-31T00:03:46;2.08;;;1.17;;
74158;SDS011;62511;47.970;11.774;2023-07-31T00:06:13;1.80;;;1.02;;
74158;SDS011;62511;47.970;11.774;2023-07-31T00:08:41;3.53;;;1.35;;
74158;SDS011;62511;47.970;11.774;2023-07-31T00:11:14;2.90;;;1.30;;
74158;SDS011;62511;47.970;11.774;2023-07-31T00:13:45;2.67;;;1.15;;
74158;SDS011;62511;47.970;11.774;2023-07-31T00:16:32;5.00;;;1.52;;
74158;SDS011;62511;47.970;11.774;2023-07-31T00:18:59;2.33;;;1.30;;
74158;SDS011;62511;47.970;11.774;2023-07-31T00:21:27;2.13;;;1.30;;
74158;SDS011;62511;47.970;11.774;2023-07-31T00:23:53;3.55;;;1.30;;
74158;SDS011;62511;47.970;11.774;2023-07-31T00:26:25;1.50;;;1.25;;
74158;SDS011;62511;47.970;11.774;2023-07-31T00:28:56;1.30;;;0.95;;
74158;SDS011;62511;47.970;11.774;2023-07-31T00:31:42;4.25;;;1.13;;
74158;SDS011;62511;47.970;11.774;2023-07-31T00:34:18;2.42;;;1.20;;
74158;SDS011;62511;47.970;11.774;2023-07-31T00:37:04;2.80;;;1.60;;
74158;SDS011;62511;47.970;11.774;2023-07-31T00:39:40;2.30;;;1.30;;
74158;SDS011;62511;47.970;11.774;2023-07-31T00:42:32;3.13;;;1.35;;
74158;SDS011;62511;47.970;11.774;2023-07-31T00:48:18;2.75;;;1.05;;
74158;SDS011;62511;47.970;11.774;2023-07-31T00:53:32;1.45;;;1.27;;
74158;SDS011;62511;47.970;11.774;2023-07-31T00:56:03;4.50;;;1.38;;
74158;SDS011;62511;47.970;11.774;2023-07-31T00:58:56;1.73;;;1.30;;
74158;SDS011;62511;47.970;11.774;2023-07-31T01:01:36;1.92;;;0.98;;
74158;SDS011;62511;47.970;11.774;2023-07-31T01:04:10;2.95;;;1.40;;
74158;SDS011;62511;47.970;11.774;2023-07-31T01:09:35;1.98;;;1.38;;
74158;SDS011;62511;47.970;11.774;2023-07-31T01:12:21;2.40;;;1.10;;
74158;SDS011;62511;47.970;11.774;2023-07-31T01:15:02;1.52;;;1.08;;
74158;SDS011;62511;47.970;11.774;2023-07-31T01:17:31;4.55;;;1.35;;
74158;SDS011;62511;47.970;11.774;2023-07-31T01:20:01;3.38;;;1.30;;
74158;SDS011;62511;47.970;11.774;2023-07-31T01:31:20;3.58;;;1.20;;
74158;SDS011;62511;47.970;11.774;2023-07-31T01:36:22;2.30;;;1.48;;
74158;SDS011;62511;47.970;11.774;2023-07-31T01:39:06;1.75;;;1.27;;
74158;SDS011;62511;47.970;11.774;2023-07-31T01:41:48;2.97;;;1.23;;
74158;SDS011;62511;47.970;11.774;2023-07-31T01:44:33;1.98;;;1.23;;
74158;SDS011;62511;47.970;11.774;2023-07-31T01:47:22;2.83;;;1.35;;
74158;SDS011;62511;47.970;11.774;2023-07-31T01:50:00;3.20;;;1.27;;
74158;SDS011;62511;47.970;11.774;2023-07-31T01:52:28;2.47;;;1.10;;
74158;SDS011;62511;47.970;11.774;2023-07-31T01:54:55;3.55;;;1.60;;
74158;SDS011;62511;47.970;11.774;2023-07-31T01:57:22;2.80;;;1.35;;
74158;SDS011;62511;47.970;11.774;2023-07-31T01:59:49;2.00;;;1.10;;
74158;SDS011;62511;47.970;11.774;2023-07-31T02:02:23;3.00;;;1.55;;
74158;SDS011;62511;47.970;11.774;2023-07-31T02:05:04;2.08;;;1.45;;
74158;SDS011;62511;47.970;11.774;2023-07-31T02:07:38;2.30;;;1.95;;
74158;SDS011;62511;47.970;11.774;2023-07-31T02:10:27;2.75;;;1.30;;
74158;SDS011;62511;47.970;11.774;2023-07-31T02:12:58;3.30;;;1.73;;
74158;SDS011;62511;47.970;11.774;2023-07-31T02:15:31;2.58;;;1.65;;
74158;SDS011;62511;47.970;11.774;2023-07-31T02:18:07;2.95;;;1.50;;
74158;SDS011;62511;47.970;11.774;2023-07-31T02:20:40;1.83;;;1.30;;
74158;SDS011;62511;47.970;11.774;2023-07-31T02:23:15;1.58;;;1.38;;
74158;SDS011;62511;47.970;11.774;2023-07-31T02:25:52;2.63;;;1.25;;
74158;SDS011;62511;47.970;11.774;2023-07-31T02:28:22;2.20;;;1.27;;
74158;SDS011;62511;47.970;11.774;2023-07-31T02:31:15;2.55;;;1.50;;
74158;SDS011;62511;47.970;11.774;2023-07-31T02:33:47;2.35;;;1.60;;
74158;SDS011;62511;47.970;11.774;2023-07-31T02:36:15;3.42;;;1.10;;
74158;SDS011;62511;47.970;11.774;2023-07-31T02:39:03;3.40;;;1.55;;
74158;SDS011;62511;47.970;11.774;2023-07-31T02:42:00;2.25;;;1.90;;
74158;SDS011;62511;47.970;11.774;2023-07-31T02:47:05;2.60;;;1.33;;
74158;SDS011;62511;47.970;11.774;2023-07-31T02:49:32;3.83;;;1.48;;
74158;SDS011;62511;47.970;11.774;2023-07-31T02:52:13;2.50;;;1.30;;
74158;SDS011;62511;47.970;11.774;2023-07-31T02:55:05;2.60;;;1.40;;
74158;SDS011;62511;47.970;11.774;2023-07-31T02:57:38;3.42;;;1.45;;
74158;SDS011;62511;47.970;11.774;2023-07-31T03:00:51;3.42;;;1.50;;
74158;SDS011;62511;47.970;11.774;2023-07-31T03:03:30;2.75;;;1.35;;
74158;SDS011;62511;47.970;11.774;2023-07-31T03:06:17;3.63;;;1.60;;
74158;SDS011;62511;47.970;11.774;2023-07-31T03:08:57;4.15;;;1.55;;
74158;SDS011;62511;47.970;11.774;2023-07-31T03:11:27;3.28;;;1.60;;
74158;SDS011;62511;47.970;11.774;2023-07-31T03:14:00;4.07;;;1.40;;
74158;SDS011;62511;47.970;11.774;2023-07-31T03:16:54;3.92;;;1.50;;
74158;SDS011;62511;47.970;11.774;2023-07-31T03:19:24;4.65;;;1.77;;
74158;SDS011;62511;47.970;11.774;2023-07-31T03:21:50;3.20;;;1.85;;
74158;SDS011;62511;47.970;11.774;2023-07-31T03:24:22;4.55;;;1.40;;
74158;SDS011;62511;47.970;11.774;2023-07-31T03:26:54;2.15;;;1.60;;
74158;SDS011;62511;47.970;11.774;2023-07-31T03:29:36;2.85;;;1.58;;
74158;SDS011;62511;47.970;11.774;2023-07-31T03:32:07;2.60;;;1.70;;
74158;SDS011;62511;47.970;11.774;2023-07-31T03:34:57;2.45;;;1.60;;
74158;SDS011;62511;47.970;11.774;2023-07-31T03:37:39;3.15;;;1.48;;
74158;SDS011;62511;47.970;11.774;2023-07-31T03:40:05;3.22;;;1.40;;
74158;SDS011;62511;47.970;11.774;2023-07-31T03:42:32;2.42;;;1.80;;
74158;SDS011;62511;47.970;11.774;2023-07-31T03:45:15;3.03;;;1.73;;
74158;SDS011;62511;47.970;11.774;2023-07-31T03:47:42;2.58;;;1.58;;
74158;SDS011;62511;47.970;11.774;2023-07-31T03:50:10;4.95;;;2.22;;
74158;SDS011;62511;47.970;11.774;2023-07-31T03:52:54;3.05;;;1.92;;
74158;SDS011;62511;47.970;11.774;2023-07-31T03:55:50;3.05;;;1.60;;
74158;SDS011;62511;47.970;11.774;2023-07-31T04:01:17;2.38;;;2.08;;
74158;SDS011;62511;47.970;11.774;2023-07-31T04:04:06;3.08;;;1.55;;
74158;SDS011;62511;47.970;11.774;2023-07-31T04:06:33;3.17;;;1.77;;
74158;SDS011;62511;47.970;11.774;2023-07-31T04:09:10;2.28;;;1.30;;
74158;SDS011;62511;47.970;11.774;2023-07-31T04:11:45;2.90;;;1.70;;
74158;SDS011;62511;47.970;11.774;2023-07-31T04:17:18;5.63;;;2.13;;
74158;SDS011;62511;47.970;11.774;2023-07-31T04:22:43;1.75;;;1.45;;
74158;SDS011;62511;47.970;11.774;2023-07-31T04:25:10;3.45;;;1.23;;
74158;SDS011;62511;47.970;11.774;2023-07-31T04:27:50;2.25;;;1.63;;
74158;SDS011;62511;47.970;11.774;2023-07-31T04:30:18;3.45;;;1.45;;
74158;SDS011;62511;47.970;11.774;2023-07-31T04:33:03;2.40;;;1.20;;
74158;SDS011;62511;47.970;11.774;2023-07-31T04:35:52;3.33;;;1.60;;
74158;SDS011;62511;47.970;11.774;2023-07-31T04:38:43;2.25;;;1.45;;
74158;SDS011;62511;47.970;11.774;2023-07-31T04:41:12;3.45;;;1.55;;
74158;SDS011;62511;47.970;11.774;2023-07-31T04:43:48;4.50;;;1.80;;
74158;SDS011;62511;47.970;11.774;2023-07-31T04:46:20;4.13;;;1.60;;
74158;SDS011;62511;47.970;11.774;2023-07-31T04:49:04;3.38;;;1.95;;
74158;SDS011;62511;47.970;11.774;2023-07-31T04:51:30;2.60;;;1.75;;
74158;SDS011;62511;47.970;11.774;2023-07-31T04:54:00;2.63;;;1.55;;
74158;SDS011;62511;47.970;11.774;2023-07-31T04:56:46;3.45;;;1.75;;
74158;SDS011;62511;47.970;11.774;2023-07-31T04:59:14;5.18;;;1.77;;
74158;SDS011;62511;47.970;11.774;2023-07-31T05:01:48;2.88;;;1.60;;
74158;SDS011;62511;47.970;11.774;2023-07-31T05:04:40;3.97;;;1.90;;
74158;SDS011;62511;47.970;11.774;2023-07-31T05:07:14;2.65;;;2.03;;
74158;SDS011;62511;47.970;11.774;2023-07-31T05:09:42;3.67;;;2.08;;
74158;SDS011;62511;47.970;11.774;2023-07-31T05:12:26;3.83;;;1.80;;
74158;SDS011;62511;47.970;11.774;2023-07-31T05:15:07;1.90;;;1.67;;
74158;SDS011;62511;47.970;11.774;2023-07-31T05:17:45;3.53;;;1.70;;
74158;SDS011;62511;47.970;11.774;2023-07-31T05:20:13;4.53;;;1.77;;
74158;SDS011;62511;47.970;11.774;2023-07-31T05:22:48;2.53;;;1.70;;
74158;SDS011;62511;47.970;11.774;2023-07-31T05:25:19;7.05;;;1.88;;
74158;SDS011;62511;47.970;11.774;2023-07-31T05:28:00;3.92;;;1.80;;
74158;SDS011;62511;47.970;11.774;2023-07-31T05:30:29;1.85;;;1.60;;
74158;SDS011;62511;47.970;11.774;2023-07-31T05:33:10;3.70;;;1.60;;
74158;SDS011;62511;47.970;11.774;2023-07-31T05:35:38;3.15;;;1.80;;
74158;SDS011;62511;47.970;11.774;2023-07-31T05:38:10;4.10;;;1.20;;
74158;SDS011;62511;47.970;11.774;2023-07-31T05:40:37;2.33;;;1.33;;
74158;SDS011;62511;47.970;11.774;2023-07-31T05:43:13;1.88;;;1.20;;
74158;SDS011;62511;47.970;11.774;2023-07-31T05:45:45;2.85;;;1.73;;
74158;SDS011;62511;47.970;11.774;2023-07-31T05:48:36;3.63;;;1.20;;
74158;SDS011;62511;47.970;11.774;2023-07-31T05:51:17;1.42;;;1.10;;
74158;SDS011;62511;47.970;11.774;2023-07-31T05:53:43;2.28;;;1.65;;
74158;SDS011;62511;47.970;11.774;2023-07-31T05:56:17;2.92;;;1.00;;
74158;SDS011;62511;47.970;11.774;2023-07-31T05:58:48;1.35;;;1.10;;
74158;SDS011;62511;47.970;11.774;2023-07-31T06:01:25;2.72;;;1.48;;
74158;SDS011;62511;47.970;11.774;2023-07-31T06:04:03;4.07;;;1.42;;
74158;SDS011;62511;47.970;11.774;2023-07-31T06:06:39;3.15;;;1.10;;
74158;SDS011;62511;47.970;11.774;2023-07-31T06:09:25;2.67;;;1.02;;
74158;SDS011;62511;47.970;11.774;2023-07-31T06:12:00;1.83;;;1.08;;
74158;SDS011;62511;47.970;11.774;2023-07-31T06:14:36;1.55;;;0.98;;
74158;SDS011;62511;47.970;11.774;2023-07-31T06:17:07;3.65;;;1.40;;
74158;SDS011;62511;47.970;11.774;2023-07-31T06:19:41;1.33;;;1.05;;
74158;SDS011;62511;47.970;11.774;2023-07-31T06:22:33;1.45;;;1.00;;
74158;SDS011;62511;47.970;11.774;2023-07-31T06:25:00;2.25;;;1.20;;
74158;SDS011;62511;47.970;11.774;2023-07-31T06:27:33;3.45;;;1.20;;
74158;SDS011;62511;47.970;11.774;2023-07-31T06:30:05;1.58;;;1.10;;
74158;SDS011;62511;47.970;11.774;2023-07-31T06:32:40;2.22;;;0.80;;
74158;SDS011;62511;47.970;11.774;2023-07-31T06:35:09;2.22;;;1.00;;
74158;SDS011;62511;47.970;11.774;2023-07-31T06:37:37;3.03;;;1.10;;
74158;SDS011;62511;47.970;11.774;2023-07-31T06:40:12;2.47;;;1.13;;
74158;SDS011;62511;47.970;11.774;2023-07-31T06:42:41;1.60;;;1.00;;
74158;SDS011;62511;47.970;11.774;2023-07-31T06:45:13;3.30;;;1.27;;
74158;SDS011;62511;47.970;11.774;2023-07-31T06:48:08;3.15;;;0.93;;
74158;SDS011;62511;47.970;11.774;2023-07-31T06:50:34;2.05;;;1.00;;
74158;SDS011;62511;47.970;11.774;2023-07-31T06:53:22;3.05;;;1.10;;
74158;SDS011;62511;47.970;11.774;2023-07-31T06:55:51;1.38;;;0.90;;
74158;SDS011;62511;47.970;11.774;2023-07-31T06:58:41;2.28;;;0.82;;
74158;SDS011;62511;47.970;11.774;2023-07-31T07:01:08;2.35;;;0.98;;
74158;SDS011;62511;47.970;11.774;2023-07-31T07:03:34;1.60;;;1.08;;
74158;SDS011;62511;47.970;11.774;2023-07-31T07:06:02;1.88;;;1.27;;
74158;SDS011;62511;47.970;11.774;2023-07-31T07:08:40;2.92;;;1.08;;
74158;SDS011;62511;47.970;11.774;2023-07-31T07:11:13;3.72;;;1.50;;
74158;SDS011;62511;47.970;11.774;2023-07-31T07:13:42;2.38;;;1.10;;
74158;SDS011;62511;47.970;11.774;2023-07-31T07:16:17;3.15;;;1.05;;
74158;SDS011;62511;47.970;11.774;2023-07-31T07:18:44;3.78;;;1.00;;
74158;SDS011;62511;47.970;11.774;2023-07-31T07:21:27;1.88;;;0.93;;
74158;SDS011;62511;47.970;11.774;2023-07-31T07:23:58;4.00;;;0.93;;
74158;SDS011;62511;47.970;11.774;2023-07-31T07:29:00;3.08;;;0.90;;
74158;SDS011;62511;47.970;11.774;2023-07-31T07:31:27;3.63;;;0.80;;
74158;SDS011;62511;47.970;11.774;2023-07-31T07:33:55;1.38;;;0.93;;
74158;SDS011;62511;47.970;11.774;2023-07-31T07:36:22;1.95;;;1.02;;
74158;SDS011;62511;47.970;11.774;2023-07-31T07:39:08;3.08;;;1.10;;
74158;SDS011;62511;47.970;11.774;2023-07-31T07:41:44;3.10;;;1.60;;
74158;SDS011;62511;47.970;11.774;2023-07-31T07:44:11;2.75;;;1.20;;
74158;SDS011;62511;47.970;11.774;2023-07-31T07:46:44;1.35;;;1.00;;
74158;SDS011;62511;47.970;11.774;2023-07-31T07:49:12;2.47;;;0.88;;
74158;SDS011;62511;47.970;11.774;2023-07-31T07:51:38;2.38;;;0.95;;
74158;SDS011;62511;47.970;11.774;2023-07-31T07:54:16;1.98;;;0.85;;
74158;SDS011;62511;47.970;11.774;2023-07-31T07:56:50;4.10;;;1.25;;
74158;SDS011;62511;47.970;11.774;2023-07-31T07:59:40;3.58;;;1.17;;
74158;SDS011;62511;47.970;11.774;2023-07-31T08:02:12;2.33;;;0.90;;
74158;SDS011;62511;47.970;11.774;2023-07-31T08:04:38;1.83;;;0.88;;
74158;SDS011;62511;47.970;11.774;2023-07-31T08:07:10;4.00;;;1.20;;
74158;SDS011;62511;47.970;11.774;2023-07-31T08:09:38;1.70;;;1.10;;
74158;SDS011;62511;47.970;11.774;2023-07-31T08:12:06;2.05;;;0.90;;
74158;SDS011;62511;47.970;11.774;2023-07-31T08:14:33;2.35;;;1.10;;
74158;SDS011;62511;47.970;11.774;2023-07-31T08:17:18;2.60;;;0.90;;
74158;SDS011;62511;47.970;11.774;2023-07-31T08:20:15;1.55;;;0.95;;
74158;SDS011;62511;47.970;11.774;2023-07-31T08:22:41;2.13;;;1.13;;
74158;SDS011;62511;47.970;11.774;2023-07-31T08:28:10;2.42;;;1.10;;
74158;SDS011;62511;47.970;11.774;2023-07-31T08:30:44;4.35;;;1.40;;
74158;SDS011;62511;47.970;11.774;2023-07-31T08:33:20;1.30;;;0.90;;
74158;SDS011;62511;47.970;11.774;2023-07-31T08:35:49;1.58;;;0.90;;
74158;SDS011;62511;47.970;11.774;2023-07-31T08:38:18;1.75;;;1.20;;
74158;SDS011;62511;47.970;11.774;2023-07-31T08:40:59;2.00;;;1.17;;
74158;SDS011;62511;47.970;11.774;2023-07-31T08:43:26;3.47;;;1.25;;
74158;SDS011;62511;47.970;11.774;2023-07-31T08:45:59;2.38;;;1.35;;
74158;SDS011;62511;47.970;11.774;2023-07-31T08:48:27;2.08;;;1.05;;
74158;SDS011;62511;47.970;11.774;2023-07-31T08:50:58;2.72;;;1.20;;
74158;SDS011;62511;47.970;11.774;2023-07-31T08:53:24;1.65;;;1.00;;
74158;SDS011;62511;47.970;11.774;2023-07-31T08:55:52;2.13;;;0.73;;
74158;SDS011;62511;47.970;11.774;2023-07-31T08:58:19;4.10;;;1.40;;
74158;SDS011;62511;47.970;11.774;2023-07-31T09:00:49;2.35;;;1.10;;
74158;SDS011;62511;47.970;11.774;2023-07-31T09:03:35;1.77;;;1.13;;
74158;SDS011;62511;47.970;11.774;2023-07-31T09:06:11;2.03;;;0.88;;
74158;SDS011;62511;47.970;11.774;2023-07-31T09:08:49;1.40;;;0.98;;
74158;SDS011;62511;47.970;11.774;2023-07-31T09:11:30;1.92;;;1.30;;
74158;SDS011;62511;47.970;11.774;2023-07-31T09:14:02;2.13;;;1.20;;
74158;SDS011;62511;47.970;11.774;2023-07-31T09:17:00;2.25;;;1.00;;
74158;SDS011;62511;47.970;11.774;2023-07-31T09:19:33;2.78;;;1.10;;
74158;SDS011;62511;47.970;11.774;2023-07-31T09:22:03;2.25;;;1.02;;
74158;SDS011;62511;47.970;11.774;2023-07-31T09:24:40;1.73;;;1.30;;
74158;SDS011;62511;47.970;11.774;2023-07-31T09:27:19;2.92;;;1.05;;
74158;SDS011;62511;47.970;11.774;2023-07-31T09:29:45;3.40;;;0.80;;
74158;SDS011;62511;47.970;11.774;2023-07-31T09:32:44;1.58;;;0.90;;
74158;SDS011;62511;47.970;11.774;2023-07-31T09:37:57;4.40;;;1.20;;
74158;SDS011;62511;47.970;11.774;2023-07-31T09:40:45;3.25;;;1.20;;
74158;SDS011;62511;47.970;11.774;2023-07-31T09:43:12;2.45;;;1.15;;
74158;SDS011;62511;47.970;11.774;2023-07-31T09:45:39;2.70;;;1.10;;
74158;SDS011;62511;47.970;11.774;2023-07-31T09:50:36;3.20;;;1.08;;
74158;SDS011;62511;47.970;11.774;2023-07-31T09:53:05;1.67;;;1.15;;
74158;SDS011;62511;47.970;11.774;2023-07-31T09:55:40;3.63;;;1.20;;
74158;SDS011;62511;47.970;11.774;2023-07-31T09:58:34;2.97;;;0.98;;
74158;SDS011;62511;47.970;11.774;2023-07-31T10:01:09;2.42;;;1.00;;
74158;SDS011;62511;47.970;11.774;2023-07-31T10:03:47;2.92;;;1.25;;
74158;SDS011;62511;47.970;11.774;2023-07-31T10:06:17;3.92;;;1.08;;
74158;SDS011;62511;47.970;11.774;2023-07-31T10:08:45;1.85;;;1.00;;
74158;SDS011;62511;47.970;11.774;2023-07-31T10:11:21;2.53;;;1.20;;
74158;SDS011;62511;47.970;11.774;2023-07-31T10:14:01;1.98;;;0.98;;
74158;SDS011;62511;47.970;11.774;2023-07-31T10:16:29;2.30;;;1.15;;
74158;SDS011;62511;47.970;11.774;2023-07-31T10:18:57;2.53;;;1.13;;
74158;SDS011;62511;47.970;11.774;2023-07-31T10:21:25;1.85;;;1.10;;
74158;SDS011;62511;47.970;11.774;2023-07-31T10:23:56;2.50;;;1.08;;
74158;SDS011;62511;47.970;11.774;2023-07-31T10:26:47;1.88;;;0.98;;
74158;SDS011;62511;47.970;11.774;2023-07-31T10:29:24;2.08;;;1.00;;
74158;SDS011;62511;47.970;11.774;2023-07-31T10:31:57;2.63;;;1.10;;
74158;SDS011;62511;47.970;11.774;2023-07-31T10:34:46;3.00;;;1.27;;
74158;SDS011;62511;47.970;11.774;2023-07-31T10:37:58;3.95;;;1.10;;
74158;SDS011;62511;47.970;11.774;2023-07-31T10:43:26;2.13;;;1.02;;
74158;SDS011;62511;47.970;11.774;2023-07-31T10:45:55;2.03;;;1.10;;
74158;SDS011;62511;47.970;11.774;2023-07-31T10:48:35;2.22;;;0.70;;
74158;SDS011;62511;47.970;11.774;2023-07-31T10:51:11;3.50;;;1.10;;
74158;SDS011;62511;47.970;11.774;2023-07-31T10:53:40;2.25;;;1.00;;
74158;SDS011;62511;47.970;11.774;2023-07-31T10:56:36;1.30;;;1.17;;
74158;SDS011;62511;47.970;11.774;2023-07-31T10:59:11;2.95;;;1.00;;
74158;SDS011;62511;47.970;11.774;2023-07-31T11:01:54;2.15;;;0.90;;
74158;SDS011;62511;47.970;11.774;2023-07-31T11:04:27;1.42;;;0.80;;
74158;SDS011;62511;47.970;11.774;2023-07-31T11:07:11;2.78;;;1.00;;
74158;SDS011;62511;47.970;11.774;2023-07-31T11:09:39;4.00;;;1.27;;
74158;SDS011;62511;47.970;11.774;2023-07-31T11:12:07;3.33;;;1.25;;
74158;SDS011;62511;47.970;11.774;2023-07-31T11:14:34;1.70;;;0.88;;
74158;SDS011;62511;47.970;11.774;2023-07-31T11:17:05;1.42;;;0.70;;
74158;SDS011;62511;47.970;11.774;2023-07-31T11:19:33;1.58;;;1.08;;
74158;SDS011;62511;47.970;11.774;2023-07-31T11:22:04;4.22;;;1.10;;
74158;SDS011;62511;47.970;11.774;2023-07-31T11:24:50;3.33;;;1.20;;
74158;SDS011;62511;47.970;11.774;2023-07-31T11:27:17;2.90;;;0.95;;
74158;SDS011;62511;47.970;11.774;2023-07-31T11:29:50;2.28;;;0.93;;
74158;SDS011;62511;47.970;11.774;2023-07-31T11:32:23;3.20;;;1.30;;
74158;SDS011;62511;47.970;11.774;2023-07-31T11:34:53;1.90;;;1.05;;
74158;SDS011;62511;47.970;11.774;2023-07-31T11:37:22;2.85;;;1.20;;
74158;SDS011;62511;47.970;11.774;2023-07-31T11:40:02;2.00;;;1.05;;
74158;SDS011;62511;47.970;11.774;2023-07-31T11:42:34;2.50;;;1.10;;
74158;SDS011;62511;47.970;11.774;2023-07-31T11:45:05;2.30;;;1.15;;
74158;SDS011;62511;47.970;11.774;2023-07-31T11:47:53;2.00;;;1.13;;
74158;SDS011;62511;47.970;11.774;2023-07-31T11:50:19;3.13;;;1.10;;
74158;SDS011;62511;47.970;11.774;2023-07-31T11:52:50;1.48;;;0.98;;
74158;SDS011;62511;47.970;11.774;2023-07-31T11:55:41;1.77;;;1.08;;
74158;SDS011;62511;47.970;11.774;2023-07-31T11:58:17;1.05;;;0.80;;
74158;SDS011;62511;47.970;11.774;2023-07-31T12:01:23;1.45;;;0.80;;
74158;SDS011;62511;47.970;11.774;2023-07-31T12:03:51;2.45;;;1.20;;
74158;SDS011;62511;47.970;11.774;2023-07-31T12:06:20;3.15;;;1.23;;
74158;SDS011;62511;47.970;11.774;2023-07-31T12:08:48;5.15;;;1.00;;
74158;SDS011;62511;47.970;11.774;2023-07-31T12:11:15;3.35;;;0.90;;
74158;SDS011;62511;47.970;11.774;2023-07-31T12:13:46;1.60;;;1.05;;
74158;SDS011;62511;47.970;11.774;2023-07-31T12:16:19;1.25;;;0.90;;
74158;SDS011;62511;47.970;11.774;2023-07-31T12:18:45;1.73;;;1.00;;
74158;SDS011;62511;47.970;11.774;2023-07-31T12:21:22;1.27;;;1.00;;
74158;SDS011;62511;47.970;11.774;2023-07-31T12:23:52;4.03;;;1.00;;
74158;SDS011;62511;47.970;11.774;2023-07-31T12:26:38;2.65;;;1.25;;
74158;SDS011;62511;47.970;11.774;2023-07-31T12:29:08;2.08;;;1.20;;
74158;SDS011;62511;47.970;11.774;2023-07-31T12:31:36;1.67;;;0.93;;
74158;SDS011;62511;47.970;11.774;2023-07-31T12:34:02;2.40;;;1.30;;
74158;SDS011;62511;47.970;11.774;2023-07-31T12:36:29;2.78;;;1.27;;
74158;SDS011;62511;47.970;11.774;2023-07-31T12:39:00;1.50;;;0.95;;
74158;SDS011;62511;47.970;11.774;2023-07-31T12:41:30;2.00;;;1.23;;
74158;SDS011;62511;47.970;11.774;2023-07-31T12:43:56;1.25;;;1.00;;
74158;SDS011;62511;47.970;11.774;2023-07-31T12:46:24;1.63;;;1.00;;
74158;SDS011;62511;47.970;11.774;2023-07-31T12:49:05;2.78;;;1.00;;
74158;SDS011;62511;47.970;11.774;2023-07-31T12:51:32;0.98;;;0.88;;
74158;SDS011;62511;47.970;11.774;2023-07-31T12:53:58;1.38;;;0.77;;
74158;SDS011;62511;47.970;11.774;2023-07-31T12:56:30;1.85;;;1.00;;
74158;SDS011;62511;47.970;11.774;2023-07-31T12:59:00;1.42;;;0.90;;
74158;SDS011;62511;47.970;11.774;2023-07-31T13:01:39;1.60;;;1.02;;
74158;SDS011;62511;47.970;11.774;2023-07-31T13:04:07;3.30;;;0.90;;
74158;SDS011;62511;47.970;11.774;2023-07-31T13:06:41;1.92;;;1.02;;
74158;SDS011;62511;47.970;11.774;2023-07-31T13:09:10;1.80;;;1.20;;
74158;SDS011;62511;47.970;11.774;2023-07-31T13:11:49;2.53;;;0.98;;
74158;SDS011;62511;47.970;11.774;2023-07-31T13:14:15;2.10;;;0.93;;
74158;SDS011;62511;47.970;11.774;2023-07-31T13:19:16;3.05;;;1.08;;
74158;SDS011;62511;47.970;11.774;2023-07-31T13:21:54;2.10;;;0.82;;
74158;SDS011;62511;47.970;11.774;2023-07-31T13:24:25;1.25;;;0.88;;
74158;SDS011;62511;47.970;11.774;2023-07-31T13:26:52;2.47;;;0.93;;
74158;SDS011;62511;47.970;11.774;2023-07-31T13:29:24;2.38;;;1.05;;
74158;SDS011;62511;47.970;11.774;2023-07-31T13:31:50;2.58;;;0.90;;
74158;SDS011;62511;47.970;11.774;2023-07-31T13:34:20;3.72;;;1.20;;
74158;SDS011;62511;47.970;11.774;2023-07-31T13:36:46;1.35;;;0.75;;
74158;SDS011;62511;47.970;11.774;2023-07-31T13:39:13;2.20;;;1.00;;
74158;SDS011;62511;47.970;11.774;2023-07-31T13:41:56;1.92;;;1.10;;
74158;SDS011;62511;47.970;11.774;2023-07-31T13:44:32;3.30;;;1.00;;
74158;SDS011;62511;47.970;11.774;2023-07-31T13:47:14;1.65;;;1.00;;
74158;SDS011;62511;47.970;11.774;2023-07-31T13:52:52;2.53;;;1.25;;
74158;SDS011;62511;47.970;11.774;2023-07-31T13:55:34;3.60;;;1.00;;
74158;SDS011;62511;47.970;11.774;2023-07-31T13:58:26;1.52;;;0.98;;
74158;SDS011;62511;47.970;11.774;2023-07-31T14:00:52;1.90;;;1.02;;
74158;SDS011;62511;47.970;11.774;2023-07-31T14:03:25;1.20;;;0.70;;
74158;SDS011;62511;47.970;11.774;2023-07-31T14:05:53;1.80;;;0.80;;
74158;SDS011;62511;47.970;11.774;2023-07-31T14:08:37;1.70;;;1.00;;
74158;SDS011;62511;47.970;11.774;2023-07-31T14:11:15;5.32;;;1.30;;
74158;SDS011;62511;47.970;11.774;2023-07-31T14:13:55;4.57;;;1.05;;
74158;SDS011;62511;47.970;11.774;2023-07-31T14:16:45;1.30;;;0.90;;
74158;SDS011;62511;47.970;11.774;2023-07-31T14:19:35;3.33;;;0.80;;
74158;SDS011;62511;47.970;11.774;2023-07-31T14:24:33;0.82;;;0.70;;
74158;SDS011;62511;47.970;11.774;2023-07-31T14:27:04;1.70;;;0.85;;
74158;SDS011;62511;47.970;11.774;2023-07-31T14:29:39;4.03;;;0.90;;
74158;SDS011;62511;47.970;11.774;2023-07-31T14:32:08;1.85;;;0.98;;
74158;SDS011;62511;47.970;11.774;2023-07-31T14:34:37;2.72;;;0.85;;
74158;SDS011;62511;47.970;11.774;2023-07-31T14:37:09;3.13;;;0.90;;
74158;SDS011;62511;47.970;11.774;2023-07-31T14:39:41;3.67;;;1.10;;
74158;SDS011;62511;47.970;11.774;2023-07-31T14:42:13;2.40;;;0.80;;
74158;SDS011;62511;47.970;11.774;2023-07-31T14:44:43;2.88;;;0.80;;
74158;SDS011;62511;47.970;11.774;2023-07-31T14:47:09;2.20;;;1.10;;
74158;SDS011;62511;47.970;11.774;2023-07-31T14:49:44;0.95;;;0.68;;
74158;SDS011;62511;47.970;11.774;2023-07-31T14:52:16;1.77;;;1.15;;
74158;SDS011;62511;47.970;11.774;2023-07-31T14:54:43;2.30;;;0.80;;
74158;SDS011;62511;47.970;11.774;2023-07-31T14:57:11;2.53;;;0.98;;
74158;SDS011;62511;47.970;11.774;2023-07-31T14:59:38;0.90;;;0.70;;
74158;SDS011;62511;47.970;11.774;2023-07-31T15:02:09;0.85;;;0.60;;
74158;SDS011;62511;47.970;11.774;2023-07-31T15:04:36;1.88;;;0.98;;
74158;SDS011;62511;47.970;11.774;2023-07-31T15:07:12;2.92;;;0.88;;
74158;SDS011;62511;47.970;11.774;2023-07-31T15:09:48;1.80;;;0.90;;
74158;SDS011;62511;47.970;11.774;2023-07-31T15:12:25;1.98;;;0.50;;
74158;SDS011;62511;47.970;11.774;2023-07-31T15:14:58;0.98;;;0.77;;
74158;SDS011;62511;47.970;11.774;2023-07-31T15:20:26;1.20;;;0.82;;
74158;SDS011;62511;47.970;11.774;2023-07-31T15:22:55;3.42;;;0.70;;
74158;SDS011;62511;47.970;11.774;2023-07-31T15:25:34;0.77;;;0.65;;
74158;SDS011;62511;47.970;11.774;2023-07-31T15:28:04;1.80;;;0.73;;
74158;SDS011;62511;47.970;11.774;2023-07-31T15:33:38;1.17;;;0.70;;
74158;SDS011;62511;47.970;11.774;2023-07-31T15:36:11;0.82;;;0.73;;
74158;SDS011;62511;47.970;11.774;2023-07-31T15:38:38;1.83;;;0.65;;
74158;SDS011;62511;47.970;11.774;2023-07-31T15:41:05;1.75;;;0.80;;
74158;SDS011;62511;47.970;11.774;2023-07-31T15:43:37;1.73;;;0.80;;
74158;SDS011;62511;47.970;11.774;2023-07-31T15:46:04;1.60;;;0.70;;
74158;SDS011;62511;47.970;11.774;2023-07-31T15:48:42;1.65;;;0.70;;
74158;SDS011;62511;47.970;11.774;2023-07-31T15:51:26;2.75;;;0.80;;
74158;SDS011;62511;47.970;11.774;2023-07-31T15:54:30;1.55;;;0.60;;
74158;SDS011;62511;47.970;11.774;2023-07-31T15:56:57;3.03;;;0.70;;
74158;SDS011;62511;47.970;11.774;2023-07-31T16:02:00;1.10;;;0.73;;
74158;SDS011;62511;47.970;11.774;2023-07-31T16:04:33;1.27;;;0.80;;
74158;SDS011;62511;47.970;11.774;2023-07-31T16:07:22;1.52;;;0.80;;
74158;SDS011;62511;47.970;11.774;2023-07-31T16:10:11;2.70;;;0.80;;
74158;SDS011;62511;47.970;11.774;2023-07-31T16:12:39;2.38;;;0.50;;
74158;SDS011;62511;47.970;11.774;2023-07-31T16:15:21;2.95;;;0.70;;
74158;SDS011;62511;47.970;11.774;2023-07-31T16:17:51;3.35;;;0.80;;
74158;SDS011;62511;47.970;11.774;2023-07-31T16:20:20;2.60;;;0.82;;